sensor_id;sensor_type;location;lat;lon;timestamp;P1;durP1;ratioP1;P2;durP2;ratioP2
81223;SDS011;70698;44.402;18.522;2023-12-20T00:01:02;406.38;;;113.57;;
81223;SDS011;70698;44.402;18.522;2023-12-20T00:03:27;402.90;;;113.45;;
81223;SDS011;70698;44.402;18.522;2023-12-20T00:05:53;392.75;;;108.90;;
81223;SDS011;70698;44.402;18.522;2023-12-20T00:08:19;411.90;;;115.53;;
81223;SDS011;70698;44.402;18.522;2023-12-20T00:10:44;217.77;;;61.08;;
81223;SDS011;70698;44.402;18.522;2023-12-20T00:13:10;451.60;;;132.00;;
81223;SDS011;70698;44.402;18.522;2023-12-20T00:15:36;440.77;;;124.30;;
81223;SDS011;70698;44.402;18.522;2023-12-20T00:18:02;415.98;;;115.78;;
81223;SDS011;70698;44.402;18.522;2023-12-20T00:20:28;414.67;;;115.82;;
81223;SDS011;70698;44.402;18.522;2023-12-20T00:22:56;356.20;;;97.47;;
81223;SDS011;70698;44.402;18.522;2023-12-20T00:25:23;394.52;;;116.63;;
81223;SDS011;70698;44.402;18.522;2023-12-20T00:27:49;455.13;;;149.15;;
81223;SDS011;70698;44.402;18.522;2023-12-20T00:30:14;442.90;;;142.77;;
81223;SDS011;70698;44.402;18.522;2023-12-20T00:32:40;429.55;;;139.23;;
81223;SDS011;70698;44.402;18.522;2023-12-20T00:35:14;204.60;;;73.75;;
81223;SDS011;70698;44.402;18.522;2023-12-20T00:37:40;409.42;;;135.77;;
81223;SDS011;70698;44.402;18.522;2023-12-20T00:40:06;383.10;;;130.05;;
81223;SDS011;70698;44.402;18.522;2023-12-20T00:42:32;329.30;;;105.32;;
81223;SDS011;70698;44.402;18.522;2023-12-20T00:44:58;191.50;;;68.57;;
81223;SDS011;70698;44.402;18.522;2023-12-20T00:47:24;231.88;;;78.15;;
81223;SDS011;70698;44.402;18.522;2023-12-20T00:49:50;151.10;;;52.50;;
81223;SDS011;70698;44.402;18.522;2023-12-20T00:52:16;312.63;;;102.20;;
81223;SDS011;70698;44.402;18.522;2023-12-20T00:54:42;116.53;;;44.90;;
81223;SDS011;70698;44.402;18.522;2023-12-20T00:57:09;73.82;;;24.98;;
81223;SDS011;70698;44.402;18.522;2023-12-20T00:59:34;95.03;;;36.72;;
81223;SDS011;70698;44.402;18.522;2023-12-20T01:02:01;99.38;;;38.05;;
81223;SDS011;70698;44.402;18.522;2023-12-20T01:04:27;96.75;;;39.58;;
81223;SDS011;70698;44.402;18.522;2023-12-20T01:06:53;104.55;;;40.28;;
81223;SDS011;70698;44.402;18.522;2023-12-20T01:09:19;90.20;;;35.97;;
81223;SDS011;70698;44.402;18.522;2023-12-20T01:11:45;88.60;;;34.55;;
81223;SDS011;70698;44.402;18.522;2023-12-20T01:14:11;83.25;;;32.65;;
81223;SDS011;70698;44.402;18.522;2023-12-20T01:16:38;100.82;;;39.60;;
81223;SDS011;70698;44.402;18.522;2023-12-20T01:19:03;122.50;;;48.63;;
81223;SDS011;70698;44.402;18.522;2023-12-20T01:21:30;174.50;;;65.25;;
81223;SDS011;70698;44.402;18.522;2023-12-20T01:23:56;149.73;;;59.13;;
81223;SDS011;70698;44.402;18.522;2023-12-20T01:26:22;54.40;;;22.30;;
81223;SDS011;70698;44.402;18.522;2023-12-20T01:28:48;77.13;;;29.30;;
81223;SDS011;70698;44.402;18.522;2023-12-20T01:31:13;71.18;;;28.55;;
81223;SDS011;70698;44.402;18.522;2023-12-20T01:33:39;66.22;;;27.33;;
81223;SDS011;70698;44.402;18.522;2023-12-20T01:36:05;59.20;;;24.20;;
81223;SDS011;70698;44.402;18.522;2023-12-20T01:38:31;54.08;;;21.83;;
81223;SDS011;70698;44.402;18.522;2023-12-20T01:40:57;65.10;;;27.52;;
81223;SDS011;70698;44.402;18.522;2023-12-20T01:43:23;48.10;;;20.45;;
81223;SDS011;70698;44.402;18.522;2023-12-20T01:45:49;134.73;;;50.53;;
81223;SDS011;70698;44.402;18.522;2023-12-20T01:48:15;294.85;;;86.95;;
81223;SDS011;70698;44.402;18.522;2023-12-20T01:50:43;150.45;;;54.47;;
81223;SDS011;70698;44.402;18.522;2023-12-20T01:53:10;81.75;;;33.22;;
81223;SDS011;70698;44.402;18.522;2023-12-20T01:55:39;102.65;;;38.70;;
81223;SDS011;70698;44.402;18.522;2023-12-20T01:58:06;53.47;;;22.65;;
81223;SDS011;70698;44.402;18.522;2023-12-20T02:00:34;69.25;;;29.35;;
81223;SDS011;70698;44.402;18.522;2023-12-20T02:03:00;95.38;;;38.63;;
81223;SDS011;70698;44.402;18.522;2023-12-20T02:05:29;146.45;;;52.65;;
81223;SDS011;70698;44.402;18.522;2023-12-20T02:07:56;134.23;;;49.95;;
81223;SDS011;70698;44.402;18.522;2023-12-20T02:10:22;123.75;;;46.92;;
81223;SDS011;70698;44.402;18.522;2023-12-20T02:12:49;129.23;;;48.25;;
81223;SDS011;70698;44.402;18.522;2023-12-20T02:15:15;111.38;;;43.28;;
81223;SDS011;70698;44.402;18.522;2023-12-20T02:17:42;108.90;;;41.55;;
81223;SDS011;70698;44.402;18.522;2023-12-20T02:20:08;149.52;;;55.45;;
81223;SDS011;70698;44.402;18.522;2023-12-20T02:22:35;235.45;;;86.45;;
81223;SDS011;70698;44.402;18.522;2023-12-20T02:25:00;81.53;;;29.77;;
81223;SDS011;70698;44.402;18.522;2023-12-20T02:27:26;145.68;;;56.53;;
81223;SDS011;70698;44.402;18.522;2023-12-20T02:29:54;125.17;;;47.30;;
81223;SDS011;70698;44.402;18.522;2023-12-20T02:32:20;110.53;;;43.25;;
81223;SDS011;70698;44.402;18.522;2023-12-20T02:34:49;159.27;;;58.15;;
81223;SDS011;70698;44.402;18.522;2023-12-20T02:37:14;129.63;;;50.53;;
81223;SDS011;70698;44.402;18.522;2023-12-20T02:39:40;121.15;;;48.33;;
81223;SDS011;70698;44.402;18.522;2023-12-20T02:42:06;165.93;;;57.25;;
81223;SDS011;70698;44.402;18.522;2023-12-20T02:44:32;136.85;;;51.90;;
81223;SDS011;70698;44.402;18.522;2023-12-20T02:46:57;162.52;;;59.42;;
81223;SDS011;70698;44.402;18.522;2023-12-20T02:49:23;79.93;;;31.25;;
81223;SDS011;70698;44.402;18.522;2023-12-20T02:51:49;120.07;;;45.10;;
81223;SDS011;70698;44.402;18.522;2023-12-20T02:54:14;103.05;;;40.60;;
81223;SDS011;70698;44.402;18.522;2023-12-20T02:56:40;113.95;;;43.90;;
81223;SDS011;70698;44.402;18.522;2023-12-20T02:59:06;113.60;;;45.25;;
81223;SDS011;70698;44.402;18.522;2023-12-20T03:01:34;117.03;;;44.40;;
81223;SDS011;70698;44.402;18.522;2023-12-20T03:04:00;126.35;;;48.03;;
81223;SDS011;70698;44.402;18.522;2023-12-20T03:06:26;145.35;;;52.05;;
81223;SDS011;70698;44.402;18.522;2023-12-20T03:08:52;118.80;;;47.22;;
81223;SDS011;70698;44.402;18.522;2023-12-20T03:11:17;119.75;;;45.92;;
81223;SDS011;70698;44.402;18.522;2023-12-20T03:13:43;140.93;;;53.63;;
81223;SDS011;70698;44.402;18.522;2023-12-20T03:16:09;116.30;;;47.90;;
81223;SDS011;70698;44.402;18.522;2023-12-20T03:18:36;106.03;;;44.05;;
81223;SDS011;70698;44.402;18.522;2023-12-20T03:21:01;116.60;;;46.63;;
81223;SDS011;70698;44.402;18.522;2023-12-20T03:23:29;151.68;;;58.28;;
81223;SDS011;70698;44.402;18.522;2023-12-20T03:25:55;109.57;;;42.00;;
81223;SDS011;70698;44.402;18.522;2023-12-20T03:28:21;102.53;;;41.05;;
81223;SDS011;70698;44.402;18.522;2023-12-20T03:30:48;121.35;;;44.17;;
81223;SDS011;70698;44.402;18.522;2023-12-20T03:33:14;121.35;;;45.35;;
81223;SDS011;70698;44.402;18.522;2023-12-20T03:35:40;116.82;;;45.13;;
81223;SDS011;70698;44.402;18.522;2023-12-20T03:38:06;130.60;;;49.38;;
81223;SDS011;70698;44.402;18.522;2023-12-20T03:40:31;138.18;;;54.20;;
81223;SDS011;70698;44.402;18.522;2023-12-20T03:42:57;122.90;;;48.83;;
81223;SDS011;70698;44.402;18.522;2023-12-20T03:45:23;189.02;;;70.95;;
81223;SDS011;70698;44.402;18.522;2023-12-20T03:47:48;150.95;;;57.83;;
81223;SDS011;70698;44.402;18.522;2023-12-20T03:50:14;112.05;;;46.00;;
81223;SDS011;70698;44.402;18.522;2023-12-20T03:52:40;114.65;;;47.55;;
81223;SDS011;70698;44.402;18.522;2023-12-20T03:55:06;92.70;;;40.50;;
81223;SDS011;70698;44.402;18.522;2023-12-20T03:57:32;123.57;;;57.25;;
81223;SDS011;70698;44.402;18.522;2023-12-20T03:59:57;108.18;;;50.00;;
81223;SDS011;70698;44.402;18.522;2023-12-20T04:02:23;113.32;;;52.42;;
81223;SDS011;70698;44.402;18.522;2023-12-20T04:04:48;91.18;;;42.42;;
81223;SDS011;70698;44.402;18.522;2023-12-20T04:07:14;109.93;;;46.40;;
81223;SDS011;70698;44.402;18.522;2023-12-20T04:09:40;87.05;;;36.63;;
81223;SDS011;70698;44.402;18.522;2023-12-20T04:12:06;59.72;;;26.20;;
81223;SDS011;70698;44.402;18.522;2023-12-20T04:14:32;78.63;;;33.22;;
81223;SDS011;70698;44.402;18.522;2023-12-20T04:16:57;80.88;;;35.15;;
81223;SDS011;70698;44.402;18.522;2023-12-20T04:19:23;88.93;;;37.50;;
81223;SDS011;70698;44.402;18.522;2023-12-20T04:21:49;84.55;;;37.33;;
81223;SDS011;70698;44.402;18.522;2023-12-20T04:24:15;85.32;;;32.85;;
81223;SDS011;70698;44.402;18.522;2023-12-20T04:26:40;78.88;;;32.90;;
81223;SDS011;70698;44.402;18.522;2023-12-20T04:29:06;89.55;;;35.67;;
81223;SDS011;70698;44.402;18.522;2023-12-20T04:31:31;246.93;;;76.95;;
81223;SDS011;70698;44.402;18.522;2023-12-20T04:33:57;685.17;;;224.77;;
81223;SDS011;70698;44.402;18.522;2023-12-20T04:36:23;474.55;;;140.95;;
81223;SDS011;70698;44.402;18.522;2023-12-20T04:38:50;95.25;;;38.20;;
81223;SDS011;70698;44.402;18.522;2023-12-20T04:41:16;159.15;;;52.90;;
81223;SDS011;70698;44.402;18.522;2023-12-20T04:43:43;114.35;;;47.50;;
81223;SDS011;70698;44.402;18.522;2023-12-20T04:46:09;93.45;;;40.90;;
81223;SDS011;70698;44.402;18.522;2023-12-20T04:48:35;59.22;;;27.10;;
81223;SDS011;70698;44.402;18.522;2023-12-20T04:51:01;31.63;;;14.85;;
81223;SDS011;70698;44.402;18.522;2023-12-20T04:53:26;105.50;;;37.90;;
81223;SDS011;70698;44.402;18.522;2023-12-20T04:55:52;162.27;;;57.72;;
81223;SDS011;70698;44.402;18.522;2023-12-20T04:58:18;137.18;;;48.63;;
81223;SDS011;70698;44.402;18.522;2023-12-20T05:00:44;151.13;;;55.67;;
81223;SDS011;70698;44.402;18.522;2023-12-20T05:03:10;133.55;;;49.30;;
81223;SDS011;70698;44.402;18.522;2023-12-20T05:05:35;135.93;;;51.88;;
81223;SDS011;70698;44.402;18.522;2023-12-20T05:08:01;99.30;;;37.90;;
81223;SDS011;70698;44.402;18.522;2023-12-20T05:10:27;154.38;;;55.90;;
81223;SDS011;70698;44.402;18.522;2023-12-20T05:12:53;171.48;;;60.35;;
81223;SDS011;70698;44.402;18.522;2023-12-20T05:15:18;246.93;;;93.57;;
81223;SDS011;70698;44.402;18.522;2023-12-20T05:17:44;158.98;;;60.70;;
81223;SDS011;70698;44.402;18.522;2023-12-20T05:20:10;129.43;;;48.88;;
81223;SDS011;70698;44.402;18.522;2023-12-20T05:22:35;141.45;;;50.95;;
81223;SDS011;70698;44.402;18.522;2023-12-20T05:25:01;121.45;;;43.70;;
81223;SDS011;70698;44.402;18.522;2023-12-20T05:27:27;68.13;;;24.55;;
81223;SDS011;70698;44.402;18.522;2023-12-20T05:29:53;102.28;;;37.33;;
81223;SDS011;70698;44.402;18.522;2023-12-20T05:32:22;89.28;;;33.05;;
81223;SDS011;70698;44.402;18.522;2023-12-20T05:34:49;63.72;;;24.98;;
81223;SDS011;70698;44.402;18.522;2023-12-20T05:37:14;145.05;;;50.75;;
81223;SDS011;70698;44.402;18.522;2023-12-20T05:39:40;167.90;;;56.55;;
81223;SDS011;70698;44.402;18.522;2023-12-20T05:42:05;142.02;;;50.58;;
81223;SDS011;70698;44.402;18.522;2023-12-20T05:44:31;147.43;;;55.05;;
81223;SDS011;70698;44.402;18.522;2023-12-20T05:46:57;98.97;;;36.25;;
81223;SDS011;70698;44.402;18.522;2023-12-20T05:49:22;94.97;;;32.88;;
81223;SDS011;70698;44.402;18.522;2023-12-20T05:51:48;71.47;;;27.33;;
81223;SDS011;70698;44.402;18.522;2023-12-20T05:54:14;166.70;;;46.17;;
81223;SDS011;70698;44.402;18.522;2023-12-20T05:56:39;137.55;;;49.47;;
81223;SDS011;70698;44.402;18.522;2023-12-20T05:59:05;152.20;;;48.17;;
81223;SDS011;70698;44.402;18.522;2023-12-20T06:01:31;174.70;;;53.75;;
81223;SDS011;70698;44.402;18.522;2023-12-20T06:03:56;379.85;;;118.13;;
81223;SDS011;70698;44.402;18.522;2023-12-20T06:06:22;258.85;;;83.25;;
81223;SDS011;70698;44.402;18.522;2023-12-20T06:08:48;237.73;;;74.65;;
81223;SDS011;70698;44.402;18.522;2023-12-20T06:11:14;721.30;;;270.23;;
81223;SDS011;70698;44.402;18.522;2023-12-20T06:13:40;468.60;;;145.18;;
81223;SDS011;70698;44.402;18.522;2023-12-20T06:16:06;294.75;;;94.78;;
81223;SDS011;70698;44.402;18.522;2023-12-20T06:18:34;214.57;;;74.07;;
81223;SDS011;70698;44.402;18.522;2023-12-20T06:21:02;213.68;;;74.60;;
81223;SDS011;70698;44.402;18.522;2023-12-20T06:23:28;153.85;;;56.85;;
81223;SDS011;70698;44.402;18.522;2023-12-20T06:25:53;141.68;;;52.70;;
81223;SDS011;70698;44.402;18.522;2023-12-20T06:28:19;142.85;;;51.25;;
81223;SDS011;70698;44.402;18.522;2023-12-20T06:30:44;140.20;;;52.22;;
81223;SDS011;70698;44.402;18.522;2023-12-20T06:33:12;214.88;;;73.03;;
81223;SDS011;70698;44.402;18.522;2023-12-20T06:35:38;636.60;;;220.48;;
81223;SDS011;70698;44.402;18.522;2023-12-20T06:38:04;659.67;;;234.30;;
81223;SDS011;70698;44.402;18.522;2023-12-20T06:40:30;503.63;;;163.57;;
81223;SDS011;70698;44.402;18.522;2023-12-20T06:42:55;817.17;;;290.00;;
81223;SDS011;70698;44.402;18.522;2023-12-20T06:45:21;231.63;;;75.95;;
81223;SDS011;70698;44.402;18.522;2023-12-20T06:47:46;285.35;;;94.68;;
81223;SDS011;70698;44.402;18.522;2023-12-20T06:50:12;293.42;;;87.95;;
81223;SDS011;70698;44.402;18.522;2023-12-20T06:52:38;521.10;;;164.98;;
81223;SDS011;70698;44.402;18.522;2023-12-20T06:55:03;734.60;;;261.15;;
81223;SDS011;70698;44.402;18.522;2023-12-20T06:57:29;423.13;;;125.70;;
81223;SDS011;70698;44.402;18.522;2023-12-20T06:59:55;162.10;;;54.17;;
81223;SDS011;70698;44.402;18.522;2023-12-20T07:02:21;168.75;;;55.92;;
81223;SDS011;70698;44.402;18.522;2023-12-20T07:04:47;204.43;;;67.72;;
81223;SDS011;70698;44.402;18.522;2023-12-20T07:07:13;190.07;;;66.30;;
81223;SDS011;70698;44.402;18.522;2023-12-20T07:09:38;218.80;;;77.75;;
81223;SDS011;70698;44.402;18.522;2023-12-20T07:12:06;182.35;;;63.80;;
81223;SDS011;70698;44.402;18.522;2023-12-20T07:14:31;253.90;;;81.78;;
81223;SDS011;70698;44.402;18.522;2023-12-20T07:16:57;210.57;;;71.65;;
81223;SDS011;70698;44.402;18.522;2023-12-20T07:19:23;348.83;;;122.57;;
81223;SDS011;70698;44.402;18.522;2023-12-20T07:21:48;364.40;;;125.57;;
81223;SDS011;70698;44.402;18.522;2023-12-20T07:24:14;355.88;;;129.00;;
81223;SDS011;70698;44.402;18.522;2023-12-20T07:26:40;581.28;;;201.20;;
81223;SDS011;70698;44.402;18.522;2023-12-20T07:29:06;609.45;;;224.63;;
81223;SDS011;70698;44.402;18.522;2023-12-20T07:31:31;414.15;;;138.95;;
81223;SDS011;70698;44.402;18.522;2023-12-20T07:33:57;542.25;;;196.05;;
81223;SDS011;70698;44.402;18.522;2023-12-20T07:36:23;586.00;;;206.98;;
81223;SDS011;70698;44.402;18.522;2023-12-20T07:38:49;707.20;;;287.25;;
81223;SDS011;70698;44.402;18.522;2023-12-20T07:41:14;542.28;;;193.75;;
81223;SDS011;70698;44.402;18.522;2023-12-20T07:43:46;485.85;;;170.23;;
81223;SDS011;70698;44.402;18.522;2023-12-20T07:46:12;365.00;;;126.60;;
81223;SDS011;70698;44.402;18.522;2023-12-20T07:48:37;327.73;;;114.47;;
81223;SDS011;70698;44.402;18.522;2023-12-20T07:51:04;464.00;;;164.27;;
81223;SDS011;70698;44.402;18.522;2023-12-20T07:53:32;427.38;;;150.73;;
81223;SDS011;70698;44.402;18.522;2023-12-20T07:55:58;488.02;;;179.15;;
81223;SDS011;70698;44.402;18.522;2023-12-20T07:58:24;509.27;;;203.45;;
81223;SDS011;70698;44.402;18.522;2023-12-20T08:00:49;549.05;;;239.55;;
81223;SDS011;70698;44.402;18.522;2023-12-20T08:03:15;425.83;;;168.85;;
81223;SDS011;70698;44.402;18.522;2023-12-20T08:05:41;486.92;;;198.13;;
81223;SDS011;70698;44.402;18.522;2023-12-20T08:08:06;472.00;;;190.30;;
81223;SDS011;70698;44.402;18.522;2023-12-20T08:10:32;486.00;;;209.27;;
81223;SDS011;70698;44.402;18.522;2023-12-20T08:12:58;516.55;;;227.68;;
81223;SDS011;70698;44.402;18.522;2023-12-20T08:15:23;389.00;;;149.43;;
81223;SDS011;70698;44.402;18.522;2023-12-20T08:17:49;370.95;;;138.70;;
81223;SDS011;70698;44.402;18.522;2023-12-20T08:20:18;537.85;;;245.23;;
81223;SDS011;70698;44.402;18.522;2023-12-20T08:22:44;539.95;;;253.55;;
81223;SDS011;70698;44.402;18.522;2023-12-20T08:25:09;562.55;;;270.13;;
81223;SDS011;70698;44.402;18.522;2023-12-20T08:27:41;496.20;;;245.13;;
81223;SDS011;70698;44.402;18.522;2023-12-20T08:30:10;422.08;;;188.18;;
81223;SDS011;70698;44.402;18.522;2023-12-20T08:32:36;410.20;;;181.13;;
81223;SDS011;70698;44.402;18.522;2023-12-20T08:35:01;366.27;;;160.30;;
81223;SDS011;70698;44.402;18.522;2023-12-20T08:37:28;415.67;;;187.77;;
81223;SDS011;70698;44.402;18.522;2023-12-20T08:39:55;390.92;;;169.13;;
81223;SDS011;70698;44.402;18.522;2023-12-20T08:42:21;397.42;;;169.23;;
81223;SDS011;70698;44.402;18.522;2023-12-20T08:44:47;403.27;;;174.90;;
81223;SDS011;70698;44.402;18.522;2023-12-20T08:47:12;410.77;;;175.07;;
81223;SDS011;70698;44.402;18.522;2023-12-20T08:52:06;518.80;;;230.35;;
81223;SDS011;70698;44.402;18.522;2023-12-20T08:54:32;454.63;;;194.88;;
81223;SDS011;70698;44.402;18.522;2023-12-20T08:56:57;369.73;;;148.60;;
81223;SDS011;70698;44.402;18.522;2023-12-20T08:59:23;374.13;;;161.63;;
81223;SDS011;70698;44.402;18.522;2023-12-20T09:01:49;321.58;;;121.93;;
81223;SDS011;70698;44.402;18.522;2023-12-20T09:04:19;480.23;;;196.80;;
81223;SDS011;70698;44.402;18.522;2023-12-20T09:06:45;558.35;;;240.18;;
81223;SDS011;70698;44.402;18.522;2023-12-20T09:09:11;354.17;;;148.00;;
81223;SDS011;70698;44.402;18.522;2023-12-20T09:11:39;488.58;;;238.77;;
81223;SDS011;70698;44.402;18.522;2023-12-20T09:14:04;509.02;;;253.77;;
81223;SDS011;70698;44.402;18.522;2023-12-20T09:16:30;512.00;;;275.95;;
81223;SDS011;70698;44.402;18.522;2023-12-20T09:18:56;795.80;;;453.75;;
81223;SDS011;70698;44.402;18.522;2023-12-20T09:21:22;509.85;;;273.25;;
81223;SDS011;70698;44.402;18.522;2023-12-20T09:23:48;467.60;;;243.75;;
81223;SDS011;70698;44.402;18.522;2023-12-20T09:26:14;442.70;;;226.80;;
81223;SDS011;70698;44.402;18.522;2023-12-20T09:28:39;370.80;;;192.32;;
81223;SDS011;70698;44.402;18.522;2023-12-20T09:31:05;435.02;;;228.77;;
81223;SDS011;70698;44.402;18.522;2023-12-20T09:33:32;444.70;;;218.13;;
81223;SDS011;70698;44.402;18.522;2023-12-20T09:35:58;282.08;;;132.48;;
81223;SDS011;70698;44.402;18.522;2023-12-20T09:38:24;239.20;;;109.97;;
81223;SDS011;70698;44.402;18.522;2023-12-20T09:40:49;165.70;;;78.30;;
81223;SDS011;70698;44.402;18.522;2023-12-20T09:43:15;155.38;;;72.63;;
81223;SDS011;70698;44.402;18.522;2023-12-20T09:45:46;154.43;;;67.47;;
81223;SDS011;70698;44.402;18.522;2023-12-20T09:48:12;138.35;;;59.55;;
81223;SDS011;70698;44.402;18.522;2023-12-20T09:50:40;105.43;;;48.40;;
81223;SDS011;70698;44.402;18.522;2023-12-20T09:53:07;83.65;;;37.45;;
81223;SDS011;70698;44.402;18.522;2023-12-20T09:55:35;71.53;;;35.38;;
81223;SDS011;70698;44.402;18.522;2023-12-20T09:58:02;112.05;;;49.47;;
81223;SDS011;70698;44.402;18.522;2023-12-20T10:00:27;102.95;;;45.65;;
81223;SDS011;70698;44.402;18.522;2023-12-20T10:05:26;111.18;;;53.25;;
81223;SDS011;70698;44.402;18.522;2023-12-20T10:07:55;105.30;;;49.33;;
81223;SDS011;70698;44.402;18.522;2023-12-20T10:10:21;97.68;;;46.75;;
81223;SDS011;70698;44.402;18.522;2023-12-20T10:13:09;116.22;;;54.90;;
81223;SDS011;70698;44.402;18.522;2023-12-20T10:15:35;145.43;;;67.97;;
81223;SDS011;70698;44.402;18.522;2023-12-20T10:18:01;250.50;;;121.45;;
81223;SDS011;70698;44.402;18.522;2023-12-20T10:20:28;211.00;;;100.25;;
81223;SDS011;70698;44.402;18.522;2023-12-20T10:23:00;296.70;;;139.82;;
81223;SDS011;70698;44.402;18.522;2023-12-20T10:25:26;230.02;;;112.68;;
81223;SDS011;70698;44.402;18.522;2023-12-20T10:28:09;318.38;;;130.63;;
81223;SDS011;70698;44.402;18.522;2023-12-20T10:30:34;279.10;;;121.88;;
81223;SDS011;70698;44.402;18.522;2023-12-20T10:33:01;206.48;;;86.32;;
81223;SDS011;70698;44.402;18.522;2023-12-20T10:35:26;307.20;;;135.07;;
81223;SDS011;70698;44.402;18.522;2023-12-20T10:37:54;400.10;;;179.55;;
81223;SDS011;70698;44.402;18.522;2023-12-20T10:40:21;359.52;;;169.20;;
81223;SDS011;70698;44.402;18.522;2023-12-20T10:42:48;351.23;;;159.25;;
81223;SDS011;70698;44.402;18.522;2023-12-20T10:45:16;353.45;;;166.52;;
81223;SDS011;70698;44.402;18.522;2023-12-20T10:47:43;346.75;;;163.25;;
81223;SDS011;70698;44.402;18.522;2023-12-20T10:50:12;334.95;;;152.05;;
81223;SDS011;70698;44.402;18.522;2023-12-20T10:52:37;353.38;;;164.48;;
81223;SDS011;70698;44.402;18.522;2023-12-20T10:55:05;337.08;;;154.25;;
81223;SDS011;70698;44.402;18.522;2023-12-20T10:57:31;399.95;;;171.25;;
81223;SDS011;70698;44.402;18.522;2023-12-20T11:00:01;351.20;;;150.97;;
81223;SDS011;70698;44.402;18.522;2023-12-20T11:02:33;378.55;;;170.82;;
81223;SDS011;70698;44.402;18.522;2023-12-20T11:07:50;265.50;;;125.82;;
81223;SDS011;70698;44.402;18.522;2023-12-20T11:10:25;301.48;;;139.13;;
81223;SDS011;70698;44.402;18.522;2023-12-20T11:15:38;347.08;;;154.07;;
81223;SDS011;70698;44.402;18.522;2023-12-20T11:18:04;245.25;;;110.25;;
81223;SDS011;70698;44.402;18.522;2023-12-20T11:20:35;256.73;;;116.37;;
81223;SDS011;70698;44.402;18.522;2023-12-20T11:23:05;198.52;;;90.95;;
81223;SDS011;70698;44.402;18.522;2023-12-20T11:26:14;204.23;;;92.95;;
81223;SDS011;70698;44.402;18.522;2023-12-20T11:28:24;221.35;;;98.82;;
81223;SDS011;70698;44.402;18.522;2023-12-20T11:30:51;200.20;;;92.20;;
81223;SDS011;70698;44.402;18.522;2023-12-20T11:33:21;208.32;;;95.30;;
81223;SDS011;70698;44.402;18.522;2023-12-20T11:35:48;214.38;;;99.68;;
81223;SDS011;70698;44.402;18.522;2023-12-20T11:38:14;263.17;;;117.55;;
81223;SDS011;70698;44.402;18.522;2023-12-20T11:40:43;501.38;;;209.27;;
81223;SDS011;70698;44.402;18.522;2023-12-20T11:43:09;450.85;;;194.15;;
81223;SDS011;70698;44.402;18.522;2023-12-20T11:45:35;438.83;;;191.07;;
81223;SDS011;70698;44.402;18.522;2023-12-20T11:48:04;448.75;;;197.50;;
81223;SDS011;70698;44.402;18.522;2023-12-20T11:50:31;458.38;;;205.30;;
81223;SDS011;70698;44.402;18.522;2023-12-20T11:52:57;453.05;;;201.88;;
81223;SDS011;70698;44.402;18.522;2023-12-20T11:55:23;403.63;;;173.30;;
81223;SDS011;70698;44.402;18.522;2023-12-20T11:57:51;423.25;;;173.80;;
81223;SDS011;70698;44.402;18.522;2023-12-20T12:00:18;430.23;;;193.35;;
81223;SDS011;70698;44.402;18.522;2023-12-20T12:02:54;353.10;;;146.27;;
81223;SDS011;70698;44.402;18.522;2023-12-20T12:05:20;355.02;;;142.73;;
81223;SDS011;70698;44.402;18.522;2023-12-20T12:07:47;328.85;;;131.70;;
81223;SDS011;70698;44.402;18.522;2023-12-20T12:10:12;367.92;;;148.30;;
81223;SDS011;70698;44.402;18.522;2023-12-20T12:12:38;341.55;;;142.05;;
81223;SDS011;70698;44.402;18.522;2023-12-20T12:15:04;339.58;;;148.55;;
81223;SDS011;70698;44.402;18.522;2023-12-20T12:17:30;370.73;;;156.80;;
81223;SDS011;70698;44.402;18.522;2023-12-20T12:20:05;501.95;;;238.75;;
81223;SDS011;70698;44.402;18.522;2023-12-20T12:22:32;461.95;;;214.25;;
81223;SDS011;70698;44.402;18.522;2023-12-20T12:25:09;384.42;;;182.98;;
81223;SDS011;70698;44.402;18.522;2023-12-20T12:27:36;403.48;;;195.43;;
81223;SDS011;70698;44.402;18.522;2023-12-20T12:30:04;407.95;;;203.10;;
81223;SDS011;70698;44.402;18.522;2023-12-20T12:32:32;404.23;;;201.18;;
81223;SDS011;70698;44.402;18.522;2023-12-20T12:34:58;381.40;;;190.50;;
81223;SDS011;70698;44.402;18.522;2023-12-20T12:37:24;386.85;;;190.85;;
81223;SDS011;70698;44.402;18.522;2023-12-20T12:39:49;319.23;;;152.40;;
81223;SDS011;70698;44.402;18.522;2023-12-20T12:42:15;324.90;;;157.40;;
81223;SDS011;70698;44.402;18.522;2023-12-20T12:44:41;296.58;;;140.70;;
81223;SDS011;70698;44.402;18.522;2023-12-20T12:47:06;270.80;;;130.50;;
81223;SDS011;70698;44.402;18.522;2023-12-20T12:49:33;261.17;;;124.60;;
81223;SDS011;70698;44.402;18.522;2023-12-20T12:51:58;238.50;;;113.00;;
81223;SDS011;70698;44.402;18.522;2023-12-20T12:54:24;207.23;;;101.85;;
81223;SDS011;70698;44.402;18.522;2023-12-20T12:56:50;181.60;;;84.88;;
81223;SDS011;70698;44.402;18.522;2023-12-20T12:59:18;154.52;;;72.82;;
81223;SDS011;70698;44.402;18.522;2023-12-20T13:01:44;138.48;;;67.03;;
81223;SDS011;70698;44.402;18.522;2023-12-20T13:04:09;128.48;;;59.92;;
81223;SDS011;70698;44.402;18.522;2023-12-20T13:09:03;132.23;;;57.53;;
81223;SDS011;70698;44.402;18.522;2023-12-20T13:11:30;373.55;;;173.77;;
81223;SDS011;70698;44.402;18.522;2023-12-20T13:13:56;679.55;;;328.17;;
81223;SDS011;70698;44.402;18.522;2023-12-20T13:16:23;749.47;;;371.80;;
81223;SDS011;70698;44.402;18.522;2023-12-20T13:18:49;559.72;;;265.13;;
81223;SDS011;70698;44.402;18.522;2023-12-20T13:21:16;485.20;;;229.82;;
81223;SDS011;70698;44.402;18.522;2023-12-20T13:23:42;445.48;;;209.45;;
81223;SDS011;70698;44.402;18.522;2023-12-20T13:26:08;343.45;;;161.95;;
81223;SDS011;70698;44.402;18.522;2023-12-20T13:28:34;355.13;;;164.30;;
81223;SDS011;70698;44.402;18.522;2023-12-20T13:30:59;335.92;;;154.05;;
81223;SDS011;70698;44.402;18.522;2023-12-20T13:33:25;295.27;;;139.27;;
81223;SDS011;70698;44.402;18.522;2023-12-20T13:35:51;303.27;;;138.43;;
81223;SDS011;70698;44.402;18.522;2023-12-20T13:38:16;301.33;;;137.48;;
81223;SDS011;70698;44.402;18.522;2023-12-20T13:40:42;285.58;;;133.80;;
81223;SDS011;70698;44.402;18.522;2023-12-20T13:43:08;253.10;;;121.80;;
81223;SDS011;70698;44.402;18.522;2023-12-20T13:45:35;261.92;;;123.60;;
81223;SDS011;70698;44.402;18.522;2023-12-20T13:48:01;260.83;;;125.65;;
81223;SDS011;70698;44.402;18.522;2023-12-20T13:50:27;230.07;;;111.60;;
81223;SDS011;70698;44.402;18.522;2023-12-20T13:52:53;251.43;;;120.78;;
81223;SDS011;70698;44.402;18.522;2023-12-20T13:55:19;286.70;;;133.50;;
81223;SDS011;70698;44.402;18.522;2023-12-20T14:00:13;132.68;;;63.15;;
81223;SDS011;70698;44.402;18.522;2023-12-20T14:02:40;110.45;;;54.88;;
81223;SDS011;70698;44.402;18.522;2023-12-20T14:05:07;89.20;;;45.95;;